Hovedside
METAR-TAF:

METAR-TAF

Lufthavner :

Šiauliai, Litauen

breddegrad: 55-53-38N, lengdegrad: 023-23-42E, høyde over havet: 135 m

Gjeldene værobservasjon

Denne rapporten ble laget for 16 minutter siden, klokken 03:20 UTC
Vind 8 kt fra Vest-nordvest
Temperatur -2°C
Luftfuktighet 80%
Trykk 1014 hPa
Sikt 10 km eller mer
ingen skyer under 1500 m og ingen bygeskyer

METAR: EYSA 290320Z 29008KT CAVOK M02/M05 Q1014 NOSIG

Tid: 05:36 (03:36 UTC)

Varsel

Denne rapporten ble laget for 1 time og 36 minutter siden, klokken 02:00 UTC
Varsel gyldig fra 29. klokken 03 UTC til 29. klokken 12 UTC
Vind 10 kt fra Vest
Sikt: 9000 m
Blir
fra 29. klokken 06 UTC til 29. klokken 07 UTC
Vind 15 kt fra Sør-sørvest
Blir
fra 29. klokken 10 UTC til 29. klokken 12 UTC
Overskyet i en høyde av 1500 ft

TAF: EYSA 290200Z 2903/2912 27010KT 9000 NSC BECMG 2906/2907 21015KT BECMG 2910/2912 OVC015

Værobservasjoner og værvarsel for over 4000 flyplasser (METAR- og TAF-rapporter).

Tilgjengelige stasjoner er representert av de røde og gule prikkene på kartet.

Hold musepekeren over prikken for å se navnet på stasjonen.

Klikk så for å se værobservasjoner og -varsler.

For å forandre kartet kan du klikke på den grønne knappen med svart kryss for å zoome inn, på den grønne knappen med strek for å zoome ut, eller på de grønne pilene for å se tilstøtende kart.


METAR-TAF: